Time;durP1;ratioP1;P1;durP2;ratioP2;P2;SDS_P1;SDS_P2;PMS_P1;PMS_P2;Temp;Humidity;BMP_temperature;BMP_pressure;BME280_temperature;BME280_humidity;BME280_pressure;Samples;Min_cycle;Max_cycle;Signal;HPM_P1;HPM_P2
2022/03/09 00:00:25;;;;;;;15.32;9.05;;;;;;;-2.56;56.00;97085.72;2065948;28;20269;-59
2022/03/09 00:01:27;;;;;;;22.05;10.35;;;;;;;-2.60;56.19;97078.03;2065513;28;20201;-59
2022/03/09 00:02:29;;;;;;;17.80;9.63;;;;;;;-2.62;55.73;97073.81;2067605;28;20574;-58
2022/03/09 00:03:32;;;;;;;28.52;10.35;;;;;;;-2.55;55.72;97074.59;2063801;28;20536;-59
2022/03/09 00:04:33;;;;;;;17.42;8.88;;;;;;;-2.58;55.74;97078.88;2063479;28;20210;-58
2022/03/09 00:05:35;;;;;;;19.42;9.35;;;;;;;-2.61;55.88;97076.34;2068989;28;20253;-59
2022/03/09 00:06:37;;;;;;;17.90;8.80;;;;;;;-2.67;56.21;97080.69;2066940;28;20285;-59
2022/03/09 00:07:39;;;;;;;22.73;10.68;;;;;;;-2.70;56.33;97079.00;2068123;28;20269;-58
2022/03/09 00:08:40;;;;;;;19.58;9.55;;;;;;;-2.56;56.38;97080.59;2053742;28;20247;-58
2022/03/09 00:09:42;;;;;;;18.50;8.82;;;;;;;-2.55;55.76;97079.72;2052610;28;20235;-59
2022/03/09 00:10:44;;;;;;;29.35;10.93;;;;;;;-2.54;55.68;97077.13;2076915;28;20296;-59
2022/03/09 00:11:45;;;;;;;19.77;10.10;;;;;;;-2.54;55.89;97082.28;2068808;28;20332;-59
2022/03/09 00:12:47;;;;;;;21.25;9.50;;;;;;;-2.52;55.68;97084.81;2065117;28;20245;-58
2022/03/09 00:13:49;;;;;;;17.90;9.02;;;;;;;-2.45;55.07;97084.75;2066513;28;20307;-59
2022/03/09 00:14:51;;;;;;;18.15;9.02;;;;;;;-2.44;55.23;97075.34;2066080;28;20202;-59
2022/03/09 00:15:52;;;;;;;19.95;9.25;;;;;;;-2.42;55.09;97081.31;2054427;28;20285;-59
2022/03/09 00:41:46;;;;;;;14.77;7.18;;;;;;;-2.73;56.23;97078.16;2065594;28;20226;-60
2022/03/09 00:42:48;;;;;;;15.98;7.22;;;;;;;-2.80;56.33;97075.66;2068906;28;20209;-59
2022/03/09 00:43:49;;;;;;;15.27;8.10;;;;;;;-2.83;56.50;97075.66;2067412;28;20206;-59
2022/03/09 00:44:50;;;;;;;12.20;6.60;;;;;;;-2.76;56.59;97080.75;2068261;28;20205;-59
2022/03/09 00:45:52;;;;;;;13.93;6.60;;;;;;;-2.66;56.44;97082.38;2068666;28;20212;-59
2022/03/09 00:46:54;;;;;;;21.45;8.65;;;;;;;-2.78;56.79;97079.06;2069310;28;20634;-58
2022/03/09 00:47:55;;;;;;;14.60;7.35;;;;;;;-3.01;57.51;97074.09;2067930;28;20231;-58
2022/03/09 00:48:56;;;;;;;23.55;8.70;;;;;;;-2.91;57.22;97080.00;2067219;28;20209;-59
2022/03/09 00:49:58;;;;;;;15.90;8.27;;;;;;;-2.85;57.07;97079.97;2067842;28;20383;-58
2022/03/09 00:51:00;;;;;;;21.80;8.35;;;;;;;-2.72;56.75;97082.44;2066832;28;20198;-58
2022/03/09 00:52:02;;;;;;;29.55;10.25;;;;;;;-2.65;56.25;97079.78;2068948;28;20205;-58
2022/03/09 00:53:03;;;;;;;14.25;7.93;;;;;;;-2.63;56.22;97083.22;2068337;28;20194;-59
2022/03/09 00:54:05;;;;;;;16.20;8.55;;;;;;;-2.58;56.40;97076.31;2067407;28;20198;-62
2022/03/09 00:55:07;;;;;;;19.45;8.85;;;;;;;-2.65;56.04;97068.69;2068128;28;20229;-60
2022/03/09 00:56:14;;;;;;;17.05;7.57;;;;;;;-2.54;56.00;97078.88;2067485;28;20202;-59
2022/03/09 00:57:16;;;;;;;14.15;7.78;;;;;;;-2.58;55.93;97078.03;2070043;28;20205;-59
2022/03/09 00:58:17;;;;;;;11.50;6.97;;;;;;;-2.59;55.96;97073.75;2069510;28;20198;-59
2022/03/09 00:59:19;;;;;;;12.90;7.13;;;;;;;-2.66;56.29;97078.09;2069726;28;20198;-58
2022/03/09 01:00:20;;;;;;;14.15;7.47;;;;;;;-2.65;56.53;97071.25;2067162;28;20233;-59
2022/03/09 01:01:22;;;;;;;14.30;7.78;;;;;;;-2.59;56.18;97074.63;2067771;28;20654;-59
2022/03/09 01:02:24;;;;;;;16.42;7.60;;;;;;;-2.63;56.14;97070.41;2067361;28;20501;-59
2022/03/09 01:03:25;;;;;;;13.23;6.43;;;;;;;-2.64;56.20;97073.81;2062644;28;20199;-58
2022/03/09 01:04:27;;;;;;;21.83;6.03;;;;;;;-2.62;56.05;97068.66;2062838;28;20190;-58
2022/03/09 01:05:29;;;;;;;15.13;7.55;;;;;;;-2.63;55.96;97066.97;2066526;28;20318;-58
2022/03/09 01:06:30;;;;;;;13.25;6.72;;;;;;;-2.63;56.14;97072.97;2068002;28;20217;-58
2022/03/09 01:07:31;;;;;;;16.20;6.47;;;;;;;-2.72;55.88;97062.78;2069506;28;20245;-58
2022/03/09 01:08:33;;;;;;;12.70;7.20;;;;;;;-2.68;55.90;97067.00;2067981;28;20753;-58
2022/03/09 01:09:35;;;;;;;15.25;6.35;;;;;;;-2.74;55.91;97059.38;2064559;28;20501;-58
2022/03/09 01:10:36;;;;;;;15.00;7.20;;;;;;;-2.66;56.40;97067.00;2065546;28;20236;-58
2022/03/09 01:11:38;;;;;;;18.55;7.05;;;;;;;-2.69;56.09;97061.88;2068992;28;20203;-59
2022/03/09 01:12:39;;;;;;;10.93;5.85;;;;;;;-2.65;56.59;97068.69;2067598;28;21061;-58
2022/03/09 01:13:41;;;;;;;19.27;6.53;;;;;;;-2.70;56.60;97062.78;2069807;28;20198;-59
2022/03/09 01:14:43;;;;;;;10.75;6.15;;;;;;;-2.61;56.39;97071.22;2067772;28;20539;-59
2022/03/09 01:15:44;;;;;;;15.00;6.63;;;;;;;-2.53;55.86;97075.41;2067053;28;20233;-58
2022/03/09 01:16:46;;;;;;;11.05;5.82;;;;;;;-2.64;55.95;97072.97;2068358;28;20229;-58
2022/03/09 01:17:47;;;;;;;14.90;6.53;;;;;;;-2.70;56.40;97076.44;2069323;28;20671;-59
2022/03/09 01:18:49;;;;;;;9.40;6.38;;;;;;;-2.85;56.71;97079.13;2068097;28;20198;-59
2022/03/09 01:19:50;;;;;;;14.18;6.20;;;;;;;-2.80;56.83;97072.25;2067328;28;20692;-58
2022/03/09 01:20:52;;;;;;;13.30;6.13;;;;;;;-2.70;56.16;97070.47;2067629;28;20202;-59
2022/03/09 01:21:54;;;;;;;13.93;5.75;;;;;;;-2.69;55.56;97074.72;2067108;28;20199;-59
2022/03/09 01:22:55;;;;;;;14.18;6.25;;;;;;;-2.59;55.56;97072.06;2068061;28;20203;-59
2022/03/09 01:23:57;;;;;;;11.18;6.22;;;;;;;-2.76;56.38;97071.34;2066201;28;20701;-58
2022/03/09 01:24:58;;;;;;;15.30;7.10;;;;;;;-2.84;56.57;97068.84;2065806;28;20197;-58
2022/03/09 01:26:00;;;;;;;10.27;6.47;;;;;;;-2.78;56.38;97068.81;2068503;28;20220;-58
2022/03/09 01:27:02;;;;;;;11.95;6.63;;;;;;;-2.73;55.96;97073.88;2067817;28;20230;-59
2022/03/09 01:28:04;;;;;;;13.05;6.22;;;;;;;-2.70;56.14;97071.31;2068774;28;20203;-59
2022/03/09 01:29:07;;;;;;;9.88;6.10;;;;;;;-2.73;56.26;97070.47;2069934;28;20645;-59
2022/03/09 01:30:09;;;;;;;14.27;5.70;;;;;;;-2.71;55.96;97076.44;2065097;28;20233;-59
2022/03/09 01:31:11;;;;;;;12.30;6.07;;;;;;;-2.69;56.25;97065.28;2066496;28;20206;-59
2022/03/09 01:32:12;;;;;;;12.45;5.93;;;;;;;-2.66;56.16;97067.84;2065355;28;20217;-58
2022/03/09 01:33:14;;;;;;;8.95;5.65;;;;;;;-2.70;56.09;97065.34;2067355;28;20201;-58
2022/03/09 01:34:16;;;;;;;14.77;6.57;;;;;;;-3.02;56.53;97030.53;2067993;28;20199;-58
2022/03/09 01:35:18;;;;;;;14.05;6.20;;;;;;;-2.79;56.91;97066.25;2069629;28;20681;-59
2022/03/09 01:36:19;;;;;;;15.10;6.80;;;;;;;-2.76;57.23;97061.09;2065800;28;20190;-58
2022/03/09 01:37:22;;;;;;;13.68;5.80;;;;;;;-2.84;57.27;97068.03;2068252;28;20209;-59
2022/03/09 01:38:25;;;;;;;12.18;5.45;;;;;;;-2.93;56.79;97068.94;2067780;28;20366;-59
2022/03/09 01:39:26;;;;;;;12.45;5.97;;;;;;;-2.90;57.17;97062.91;2068833;28;20190;-59
2022/03/09 01:40:28;;;;;;;14.38;6.20;;;;;;;-2.91;56.97;97058.66;2067443;28;20440;-58
2022/03/09 01:41:29;;;;;;;15.25;7.80;;;;;;;-2.83;56.98;97060.28;2069712;28;20206;-58
2022/03/09 01:42:31;;;;;;;16.23;6.50;;;;;;;-2.91;57.31;97056.09;2069434;28;20196;-59
2022/03/09 01:43:32;;;;;;;12.30;6.70;;;;;;;-2.88;57.15;97062.06;2068185;28;20205;-58
2022/03/09 01:44:34;;;;;;;13.15;6.55;;;;;;;-2.89;57.17;97064.63;2069350;28;20190;-59
2022/03/09 01:45:36;;;;;;;13.27;5.80;;;;;;;-2.78;57.30;97061.13;2068272;28;20368;-59
2022/03/09 01:46:38;;;;;;;10.43;5.55;;;;;;;-2.62;56.23;97059.25;2067603;28;20237;-58
2022/03/09 01:47:40;;;;;;;19.88;5.95;;;;;;;-2.44;55.54;97059.94;2067666;28;20210;-58
2022/03/09 01:48:42;;;;;;;12.45;5.40;;;;;;;-2.58;56.50;97054.94;2070008;28;20206;-58
2022/03/09 01:49:43;;;;;;;11.90;5.80;;;;;;;-2.69;56.92;97049.91;2067689;28;20206;-61
2022/03/09 01:50:46;;;;;;;11.25;6.22;;;;;;;-2.70;57.27;97049.94;2067866;28;20206;-58
2022/03/09 01:51:50;;;;;;;13.02;5.63;;;;;;;-2.75;56.86;97055.09;2069707;28;20206;-58
2022/03/09 01:52:51;;;;;;;15.85;5.93;;;;;;;-2.76;57.17;97048.28;2068834;28;20516;-58
2022/03/09 01:53:53;;;;;;;10.00;5.55;;;;;;;-3.01;57.70;97045.06;2071178;28;20194;-59
2022/03/09 01:54:55;;;;;;;11.02;6.30;;;;;;;-3.15;58.03;97040.06;2067366;28;20202;-58
2022/03/09 01:55:56;;;;;;;14.23;6.53;;;;;;;-3.05;58.05;97044.25;2069214;28;20677;-59
2022/03/09 01:56:59;;;;;;;13.85;5.90;;;;;;;-2.97;57.45;97040.78;2069407;28;20303;-58
2022/03/09 01:58:00;;;;;;;9.25;5.95;;;;;;;-2.86;57.55;97044.06;2068093;28;20211;-59
2022/03/09 01:59:08;;;;;;;11.98;5.90;;;;;;;-2.90;57.96;97038.16;2069904;28;20199;-59
2022/03/09 02:00:10;;;;;;;15.88;6.63;;;;;;;-2.96;57.89;97045.03;2068705;28;20226;-58
2022/03/09 02:01:11;;;;;;;9.00;5.10;;;;;;;-3.01;58.19;97040.78;2071287;28;20630;-59
2022/03/09 02:02:13;;;;;;;11.32;6.43;;;;;;;-2.97;58.06;97040.78;2070772;28;20244;-59
2022/03/09 02:03:15;;;;;;;12.13;6.43;;;;;;;-3.04;58.26;97039.97;2068174;28;20210;-59
2022/03/09 02:04:18;;;;;;;14.93;5.80;;;;;;;-3.12;58.54;97042.56;2069125;28;20225;-59
2022/03/09 02:05:20;;;;;;;15.00;8.07;;;;;;;-3.09;58.53;97045.13;2068414;28;20233;-59
2022/03/09 02:06:21;;;;;;;20.75;8.80;;;;;;;-3.23;58.61;97044.41;2068943;28;20194;-59
2022/03/09 02:09:41;;;;;;;18.17;9.45;;;;;;;-3.34;59.50;97048.72;2069183;28;20580;-58
2022/03/09 02:10:07;;;;;;;20.50;9.73;;;;;;;-3.50;59.89;97042.88;2070206;28;20237;-58
2022/03/09 02:11:08;;;;;;;18.33;9.55;;;;;;;-3.70;60.13;97043.00;2069622;28;20198;-58
2022/03/09 02:12:17;;;;;;;17.63;9.50;;;;;;;-3.69;60.61;97047.22;2069912;28;20214;-59
2022/03/09 02:13:19;;;;;;;19.85;9.15;;;;;;;-3.89;60.97;97039.66;2068961;28;20206;-59
2022/03/09 02:14:36;;;;;;;16.65;8.77;;;;;;;-3.90;61.22;97043.94;2070158;28;20668;-58
2022/03/09 02:15:37;;;;;;;20.38;8.40;;;;;;;-3.95;61.41;97030.28;2066485;28;20230;-58
2022/03/09 02:16:39;;;;;;;16.17;8.85;;;;;;;-3.85;60.93;97042.19;2069989;28;20203;-58
2022/03/09 02:17:41;;;;;;;17.52;9.68;;;;;;;-4.09;61.99;97047.44;2068716;28;20209;-58
2022/03/09 02:18:42;;;;;;;17.60;9.15;;;;;;;-3.93;61.90;97037.97;2071602;28;20202;-59
2022/03/09 02:19:47;;;;;;;16.08;8.50;;;;;;;-4.01;61.68;97048.25;2070396;28;20236;-59
2022/03/09 02:20:50;;;;;;;17.20;8.40;;;;;;;-3.86;61.20;97048.19;2066314;28;20201;-58
2022/03/09 02:21:58;;;;;;;16.75;8.85;;;;;;;-3.89;61.25;97047.34;2069162;28;20210;-59
2022/03/09 02:23:01;;;;;;;17.13;8.52;;;;;;;-3.88;61.27;97043.91;2069666;28;20206;-58
2022/03/09 02:24:02;;;;;;;19.88;9.35;;;;;;;-3.83;61.29;97044.75;2067848;28;20201;-58
2022/03/09 02:25:07;;;;;;;15.80;8.70;;;;;;;-3.87;60.76;97038.78;2067919;28;20234;-59
2022/03/09 02:26:09;;;;;;;23.02;8.55;;;;;;;-3.81;61.06;97038.75;2068385;28;20637;-59
2022/03/09 02:27:10;;;;;;;18.80;8.15;;;;;;;-3.90;61.31;97049.06;2066040;28;20555;-59
2022/03/09 02:28:12;;;;;;;18.25;8.35;;;;;;;-3.95;61.11;97057.59;2071706;28;20886;-58
2022/03/09 02:29:14;;;;;;;15.88;8.90;;;;;;;-4.12;61.57;97038.03;2071782;28;20208;-58
2022/03/09 02:30:18;;;;;;;21.15;9.32;;;;;;;-3.90;61.21;97046.50;2069111;28;20226;-59
2022/03/09 02:31:20;;;;;;;15.27;8.40;;;;;;;-3.87;61.16;97043.91;2067961;28;20228;-58
2022/03/09 02:32:22;;;;;;;15.00;8.70;;;;;;;-3.87;61.38;97041.34;2070874;28;20205;-58
2022/03/09 02:33:23;;;;;;;19.23;8.75;;;;;;;-3.82;61.30;97047.31;2071221;28;20202;-58
2022/03/09 02:34:25;;;;;;;17.58;8.57;;;;;;;-3.92;61.33;97048.22;2068796;28;20201;-58
2022/03/09 02:35:26;;;;;;;13.93;8.20;;;;;;;-4.11;62.00;97041.47;2069583;28;20222;-58
2022/03/09 02:36:28;;;;;;;16.58;8.93;;;;;;;-4.26;62.41;97045.75;2070298;28;20221;-58
2022/03/09 02:37:29;;;;;;;18.58;9.52;;;;;;;-4.40;62.87;97052.63;2067359;28;20629;-58
2022/03/09 02:38:31;;;;;;;15.73;8.65;;;;;;;-4.42;63.33;97049.22;2067665;28;20199;-59
2022/03/09 02:39:32;;;;;;;24.33;9.00;;;;;;;-4.41;63.07;97043.25;2069005;28;20198;-58
2022/03/09 02:40:34;;;;;;;23.40;10.05;;;;;;;-4.40;63.04;97048.34;2071182;28;20587;-58
2022/03/09 02:41:35;;;;;;;18.30;9.52;;;;;;;-4.51;63.50;97044.97;2065691;28;20206;-58
2022/03/09 02:42:37;;;;;;;18.00;9.65;;;;;;;-4.46;63.16;97042.44;2067857;28;20210;-58
2022/03/09 02:43:38;;;;;;;16.77;8.75;;;;;;;-4.44;63.29;97049.22;2069466;28;20530;-58
2022/03/09 02:44:43;;;;;;;21.17;9.20;;;;;;;-4.39;62.86;97039.84;2067418;28;20202;-58
2022/03/09 02:45:45;;;;;;;18.77;9.20;;;;;;;-4.30;62.33;97033.84;2069451;28;20221;-58
2022/03/09 02:46:46;;;;;;;18.60;8.07;;;;;;;-4.27;62.13;97036.41;2070105;28;20701;-58
2022/03/09 02:47:48;;;;;;;19.25;8.68;;;;;;;-4.23;62.15;97043.22;2068550;28;20741;-58
2022/03/09 02:48:50;;;;;;;16.48;8.05;;;;;;;-4.18;61.94;97035.50;2071664;28;20198;-58
2022/03/09 02:49:52;;;;;;;17.45;8.25;;;;;;;-4.05;61.70;97034.59;2069282;28;20194;-58
2022/03/09 02:50:53;;;;;;;21.65;7.82;;;;;;;-4.20;61.55;97038.06;2069603;28;20828;-58
2022/03/09 02:51:54;;;;;;;21.50;7.80;;;;;;;-4.35;62.21;97037.25;2070571;28;20544;-58
2022/03/09 02:52:56;;;;;;;20.85;9.45;;;;;;;-4.37;62.66;97038.13;2068587;28;20534;-58
2022/03/09 02:54:00;;;;;;;20.08;9.05;;;;;;;-4.37;62.28;97030.47;2067812;28;20197;-58
2022/03/09 02:55:01;;;;;;;25.02;9.98;;;;;;;-4.19;61.82;97032.09;2068763;28;20204;-58
2022/03/09 02:56:03;;;;;;;17.13;8.52;;;;;;;-4.23;62.25;97032.97;2070874;28;20194;-59
2022/03/09 02:57:06;;;;;;;16.45;8.45;;;;;;;-4.17;61.92;97027.00;2069420;28;20278;-58
2022/03/09 02:58:08;;;;;;;16.70;8.63;;;;;;;-4.07;62.14;97032.91;2068815;28;20229;-58
2022/03/09 02:59:09;;;;;;;18.73;8.82;;;;;;;-4.04;61.31;97032.88;2069125;28;20201;-58
2022/03/09 03:00:12;;;;;;;16.23;7.28;;;;;;;-3.88;61.14;97016.63;2069665;28;20669;-58
2022/03/09 03:01:14;;;;;;;21.45;8.65;;;;;;;-3.88;61.10;97034.53;2068771;28;20714;-58
2022/03/09 03:02:16;;;;;;;12.98;7.13;;;;;;;-3.94;61.36;97034.56;2068241;28;20198;-59
2022/03/09 03:03:18;;;;;;;13.88;6.80;;;;;;;-3.86;61.07;97029.38;2068921;28;20644;-58
2022/03/09 03:04:19;;;;;;;13.32;6.95;;;;;;;-3.78;60.91;97031.06;2067862;28;20213;-58
2022/03/09 03:05:21;;;;;;;14.68;6.93;;;;;;;-4.07;61.14;97043.16;2068304;28;20226;-59
2022/03/09 03:06:23;;;;;;;17.27;7.60;;;;;;;-4.18;61.78;97033.78;2066809;28;20199;-58
2022/03/09 03:07:25;;;;;;;13.70;7.05;;;;;;;-4.14;61.88;97036.34;2067118;28;20221;-58
2022/03/09 03:08:26;;;;;;;18.92;6.45;;;;;;;-4.14;61.92;97037.19;2068047;28;20227;-58
2022/03/09 03:09:28;;;;;;;12.68;7.40;;;;;;;-3.98;61.47;97030.28;2069455;28;20195;-59
2022/03/09 03:10:29;;;;;;;13.55;7.20;;;;;;;-4.13;61.75;97035.50;2068198;28;20752;-58
2022/03/09 03:11:31;;;;;;;17.00;8.25;;;;;;;-4.11;61.87;97037.19;2070735;28;20190;-59
2022/03/09 03:12:32;;;;;;;13.05;7.18;;;;;;;-4.19;61.85;97033.81;2067728;28;20202;-58
2022/03/09 03:13:35;;;;;;;15.73;7.40;;;;;;;-4.11;61.48;97033.78;2067170;28;20199;-58
2022/03/09 03:14:38;;;;;;;14.95;8.40;;;;;;;-4.11;61.71;97041.47;2069187;28;20582;-58
2022/03/09 03:15:39;;;;;;;15.05;8.32;;;;;;;-4.17;61.34;97025.28;2070094;28;20213;-59
2022/03/09 03:16:41;;;;;;;19.25;8.35;;;;;;;-4.00;61.25;97039.69;2068086;28;20213;-58
2022/03/09 03:17:42;;;;;;;20.33;7.05;;;;;;;-3.93;61.35;97043.09;2066439;28;20202;-58
2022/03/09 03:18:44;;;;;;;15.82;7.57;;;;;;;-3.87;60.84;97028.53;2068184;28;20221;-58
2022/03/09 03:19:45;;;;;;;17.10;8.38;;;;;;;-3.92;61.22;97043.09;2069497;28;20201;-58
2022/03/09 03:20:48;;;;;;;14.02;7.53;;;;;;;-3.83;60.92;97039.63;2069571;28;20210;-58
2022/03/09 03:21:49;;;;;;;11.52;6.75;;;;;;;-3.87;61.02;97041.34;2068934;28;20197;-58
2022/03/09 03:22:51;;;;;;;18.20;6.80;;;;;;;-3.93;60.78;97043.09;2071195;28;20198;-58
2022/03/09 03:23:52;;;;;;;11.05;6.78;;;;;;;-3.83;60.98;97037.06;2069700;28;20516;-58
2022/03/09 03:24:54;;;;;;;14.32;6.78;;;;;;;-3.82;60.89;97039.63;2067217;28;20544;-58
2022/03/09 03:25:56;;;;;;;13.00;6.28;;;;;;;-3.88;61.04;97043.91;2069067;28;20650;-58
2022/03/09 03:26:57;;;;;;;10.73;5.28;;;;;;;-3.91;61.09;97041.38;2069980;28;20214;-58
2022/03/09 03:27:59;;;;;;;16.40;5.95;;;;;;;-4.06;61.55;97042.28;2067019;28;20202;-58
2022/03/09 03:29:00;;;;;;;12.48;6.78;;;;;;;-4.03;61.64;97043.13;2068575;28;20194;-58
2022/03/09 03:30:02;;;;;;;12.00;6.65;;;;;;;-3.99;61.72;97041.41;2068727;28;20199;-58
2022/03/09 03:31:05;;;;;;;19.73;6.80;;;;;;;-4.00;61.76;97040.56;2068485;28;20552;-58
2022/03/09 03:32:10;;;;;;;11.23;5.57;;;;;;;-4.07;62.08;97041.44;2068584;28;20209;-58
2022/03/09 03:33:12;;;;;;;19.95;8.27;;;;;;;-4.05;61.67;97037.16;2069911;28;20198;-59
2022/03/09 03:34:14;;;;;;;13.15;6.00;;;;;;;-3.96;61.83;97046.50;2067522;28;20202;-58
2022/03/09 03:35:15;;;;;;;14.10;7.20;;;;;;;-4.27;62.04;97046.63;2068963;28;20218;-58
2022/03/09 03:36:17;;;;;;;12.82;6.88;;;;;;;-4.25;62.13;97039.81;2068664;28;20203;-58
2022/03/09 03:37:19;;;;;;;10.75;5.75;;;;;;;-4.26;62.64;97042.34;2069351;28;20198;-58
2022/03/09 03:38:20;;;;;;;15.95;7.47;;;;;;;-4.17;62.22;97048.28;2067709;28;20194;-58
2022/03/09 03:39:22;;;;;;;15.23;6.97;;;;;;;-4.38;62.23;97004.88;2067802;28;20202;-58
2022/03/09 03:40:23;;;;;;;11.88;6.55;;;;;;;-3.93;61.60;97048.22;2070335;28;20229;-58
2022/03/09 03:41:27;;;;;;;17.42;7.88;;;;;;;-3.93;61.74;97050.78;2069174;28;20198;-58
2022/03/09 03:42:28;;;;;;;16.92;6.45;;;;;;;-4.05;61.70;97052.50;2069915;28;20199;-59
2022/03/09 03:43:30;;;;;;;13.98;6.18;;;;;;;-4.09;62.03;97055.09;2068700;28;20201;-59
2022/03/09 03:44:32;;;;;;;14.82;6.53;;;;;;;-4.08;62.12;97054.22;2068628;28;20256;-59
2022/03/09 03:45:33;;;;;;;12.88;6.30;;;;;;;-4.13;62.03;97053.41;2067050;28;20253;-58
2022/03/09 03:46:35;;;;;;;21.27;6.70;;;;;;;-4.17;62.73;97050.84;2068271;28;20201;-58
2022/03/09 03:47:36;;;;;;;14.73;5.75;;;;;;;-4.20;62.50;97053.41;2067578;28;20578;-58
2022/03/09 03:48:38;;;;;;;11.82;6.80;;;;;;;-4.21;62.65;97053.44;2069017;28;20197;-58
2022/03/09 03:49:39;;;;;;;12.82;5.80;;;;;;;-4.20;62.35;97055.97;2065126;28;20204;-59
2022/03/09 03:50:41;;;;;;;16.10;7.43;;;;;;;-4.20;62.62;97062.81;2065600;28;20218;-58
2022/03/09 03:51:42;;;;;;;17.67;6.18;;;;;;;-4.21;62.55;97054.28;2067593;28;20194;-58
2022/03/09 03:52:45;;;;;;;14.48;7.47;;;;;;;-4.17;62.20;97055.13;2068309;28;20198;-58
2022/03/09 03:53:46;;;;;;;12.25;5.95;;;;;;;-4.24;62.06;97059.41;2069158;28;20202;-58
2022/03/09 03:54:48;;;;;;;11.30;6.28;;;;;;;-4.40;62.66;97055.19;2069305;28;20198;-58
2022/03/09 03:55:49;;;;;;;11.60;6.50;;;;;;;-4.34;62.35;97062.84;2068370;28;20202;-59
2022/03/09 03:56:51;;;;;;;12.52;6.90;;;;;;;-4.32;62.27;97056.00;2068957;28;20205;-58
2022/03/09 03:57:53;;;;;;;12.48;6.40;;;;;;;-4.27;62.14;97056.88;2067899;28;20205;-58
2022/03/09 03:58:54;;;;;;;13.20;6.22;;;;;;;-4.27;62.17;97056.00;2069207;28;20203;-59
2022/03/09 03:59:55;;;;;;;12.77;5.97;;;;;;;-4.23;62.32;97062.81;2066555;28;20209;-59
2022/03/09 04:00:57;;;;;;;12.82;5.53;;;;;;;-4.31;62.43;97065.41;2067448;28;20195;-58
2022/03/09 04:01:59;;;;;;;12.18;6.22;;;;;;;-4.38;63.10;97061.16;2067258;28;20289;-59
2022/03/09 04:03:01;;;;;;;11.43;5.97;;;;;;;-4.34;62.87;97070.50;2070430;28;20293;-58
2022/03/09 04:04:03;;;;;;;11.30;6.07;;;;;;;-4.46;63.30;97066.28;2066593;28;20216;-58
2022/03/09 04:05:05;;;;;;;13.52;5.75;;;;;;;-4.38;63.16;97066.25;2067178;28;20214;-58
2022/03/09 04:06:07;;;;;;;13.50;5.88;;;;;;;-4.35;63.24;97060.28;2068710;28;20209;-58
2022/03/09 04:07:09;;;;;;;17.00;6.72;;;;;;;-4.37;63.25;97068.81;2070304;28;20255;-58
2022/03/09 04:08:10;;;;;;;10.30;5.63;;;;;;;-4.38;63.05;97063.72;2067548;28;20229;-58
2022/03/09 04:09:12;;;;;;;11.88;5.90;;;;;;;-4.29;62.97;97063.69;2067197;28;20911;-58
2022/03/09 04:10:14;;;;;;;21.33;6.72;;;;;;;-4.20;62.66;97058.53;2065437;28;20250;-58
2022/03/09 04:11:15;;;;;;;12.98;6.35;;;;;;;-4.25;62.83;97060.28;2066187;28;20689;-58
2022/03/09 04:12:17;;;;;;;13.32;6.10;;;;;;;-4.31;63.08;97055.19;2067387;28;20198;-58
2022/03/09 04:13:18;;;;;;;10.27;5.22;;;;;;;-4.43;63.14;97057.75;2068058;28;20215;-58
2022/03/09 04:14:22;;;;;;;12.50;5.22;;;;;;;-4.35;62.78;97058.59;2068219;28;20228;-59
2022/03/09 04:15:23;;;;;;;11.75;5.82;;;;;;;-4.43;62.99;97062.84;2069064;28;20241;-58
2022/03/09 04:16:25;;;;;;;13.10;6.47;;;;;;;-4.50;63.26;97056.06;2069432;28;20638;-59
2022/03/09 04:17:38;;;;;;;10.43;6.28;;;;;;;-4.71;63.84;97059.50;2066610;28;20228;-58
2022/03/09 04:18:39;;;;;;;15.93;6.60;;;;;;;-4.67;63.75;97050.97;2064978;28;20229;-58
2022/03/09 04:19:41;;;;;;;11.25;5.97;;;;;;;-4.69;63.77;97056.09;2070045;28;20195;-59
2022/03/09 04:20:42;;;;;;;16.17;7.30;;;;;;;-4.62;63.33;97054.38;2066014;28;20618;-59
2022/03/09 04:21:44;;;;;;;14.40;6.65;;;;;;;-4.69;63.84;97058.66;2067213;28;20205;-58
2022/03/09 04:22:45;;;;;;;12.38;6.25;;;;;;;-4.68;63.83;97060.38;2067995;28;20216;-58
2022/03/09 04:23:47;;;;;;;19.35;6.38;;;;;;;-4.63;63.64;97058.63;2067681;28;20851;-58
2022/03/09 04:24:48;;;;;;;13.80;5.70;;;;;;;-4.46;63.13;97055.22;2068201;28;20209;-58
2022/03/09 04:25:50;;;;;;;13.82;6.18;;;;;;;-4.48;63.21;97062.88;2067076;28;20645;-58
2022/03/09 04:26:51;;;;;;;14.38;6.00;;;;;;;-4.53;63.15;97053.50;2068306;28;20205;-58
2022/03/09 04:27:53;;;;;;;13.88;5.80;;;;;;;-4.56;63.64;97054.38;2067718;28;20214;-59
2022/03/09 04:28:54;;;;;;;14.68;6.55;;;;;;;-4.47;63.26;97051.81;2065563;28;20286;-58
2022/03/09 04:29:56;;;;;;;13.05;6.40;;;;;;;-4.52;63.27;97050.97;2065285;28;20202;-58
2022/03/09 04:30:58;;;;;;;12.63;6.95;;;;;;;-4.57;63.44;97048.41;2068189;28;20201;-58
2022/03/09 04:31:59;;;;;;;18.48;6.82;;;;;;;-4.48;63.56;97056.91;2067199;28;20226;-58
2022/03/09 04:33:01;;;;;;;13.20;6.78;;;;;;;-4.43;63.05;97055.19;2071121;28;20664;-58
2022/03/09 04:34:02;;;;;;;13.98;5.97;;;;;;;-4.47;63.06;97049.25;2066316;28;20802;-59
2022/03/09 04:35:05;;;;;;;9.18;5.38;;;;;;;-4.48;62.94;97042.41;2067541;28;20234;-58
2022/03/09 04:36:09;;;;;;;14.73;5.82;;;;;;;-4.43;63.19;97050.06;2067410;28;20668;-58
2022/03/09 04:37:11;;;;;;;14.07;5.65;;;;;;;-4.55;63.61;97050.94;2066812;28;20203;-58
2022/03/09 04:38:12;;;;;;;11.45;5.85;;;;;;;-4.56;63.93;97054.38;2066316;28;20198;-58
2022/03/09 04:39:14;;;;;;;13.38;5.75;;;;;;;-4.77;64.37;97056.09;2068853;28;20204;-58
2022/03/09 04:40:16;;;;;;;15.30;6.10;;;;;;;-4.91;65.00;97060.38;2067238;28;20224;-58
2022/03/09 04:41:18;;;;;;;12.52;6.30;;;;;;;-5.22;65.67;97057.81;2067378;28;20608;-58
2022/03/09 04:42:19;;;;;;;16.65;7.05;;;;;;;-5.19;65.96;97062.09;2066428;28;20217;-58
2022/03/09 04:43:21;;;;;;;10.63;6.18;;;;;;;-5.27;66.13;97063.75;2069217;28;20658;-58
2022/03/09 04:44:22;;;;;;;14.45;7.13;;;;;;;-5.31;66.05;97067.16;2066813;28;20207;-58
2022/03/09 04:45:24;;;;;;;14.50;6.90;;;;;;;-5.20;65.86;97062.94;2067538;28;20250;-59
2022/03/09 04:46:25;;;;;;;15.07;7.28;;;;;;;-5.43;66.52;97060.34;2067526;28;20205;-58
2022/03/09 04:47:27;;;;;;;13.93;7.38;;;;;;;-5.52;66.49;97057.78;2067955;28;20199;-59
2022/03/09 04:48:29;;;;;;;15.13;7.65;;;;;;;-5.74;67.18;97061.97;2069061;28;20697;-59
2022/03/09 04:49:30;;;;;;;12.63;7.30;;;;;;;-5.58;66.89;97058.63;2067916;28;20198;-59
2022/03/09 04:50:32;;;;;;;19.73;8.18;;;;;;;-5.34;66.31;97057.81;2067636;28;20225;-58
2022/03/09 04:51:33;;;;;;;18.95;8.88;;;;;;;-5.45;66.37;97060.38;2069062;28;20423;-58
2022/03/09 04:52:35;;;;;;;17.15;7.75;;;;;;;-5.46;66.33;97055.25;2069596;28;20504;-58
2022/03/09 04:53:37;;;;;;;15.63;8.10;;;;;;;-5.29;66.08;97060.34;2069042;28;20564;-58
2022/03/09 04:54:38;;;;;;;17.92;8.57;;;;;;;-5.20;65.70;97060.38;2068350;28;20208;-58
2022/03/09 04:55:39;;;;;;;16.38;7.72;;;;;;;-5.07;64.86;97056.97;2068426;28;20229;-58
2022/03/09 04:56:41;;;;;;;17.35;8.63;;;;;;;-5.18;64.90;97058.66;2067641;28;20209;-58
2022/03/09 04:57:46;;;;;;;13.10;7.57;;;;;;;-5.22;65.04;97051.84;2067833;28;20209;-58
2022/03/09 04:58:47;;;;;;;12.70;8.10;;;;;;;-5.18;65.25;97058.66;2066823;28;20536;-58
2022/03/09 04:59:49;;;;;;;15.15;7.22;;;;;;;-5.04;64.60;97051.00;2066832;28;20602;-58
2022/03/09 05:00:52;;;;;;;17.85;8.13;;;;;;;-5.08;64.70;97041.66;2068061;28;20206;-58
2022/03/09 05:01:54;;;;;;;16.38;7.30;;;;;;;-5.17;64.65;97045.06;2068759;28;20204;-58
2022/03/09 05:02:55;;;;;;;15.80;7.90;;;;;;;-5.08;64.43;97042.47;2069128;28;20194;-58
2022/03/09 05:03:57;;;;;;;15.55;8.75;;;;;;;-5.00;64.28;97045.03;2067320;28;20206;-58
2022/03/09 05:04:58;;;;;;;20.20;7.47;;;;;;;-4.98;64.30;97045.88;2068681;28;20205;-58
2022/03/09 05:06:03;;;;;;;17.38;7.47;;;;;;;-5.03;64.58;97040.78;2068190;28;20201;-58
2022/03/09 05:07:06;;;;;;;13.60;7.35;;;;;;;-5.22;65.04;97044.19;2066092;28;20200;-58
2022/03/09 05:08:09;;;;;;;15.20;8.23;;;;;;;-5.18;65.19;97046.75;2069086;28;20204;-58
2022/03/09 05:09:10;;;;;;;14.75;7.90;;;;;;;-5.25;65.66;97047.59;2068028;28;20194;-58
2022/03/09 05:10:12;;;;;;;15.10;8.30;;;;;;;-5.24;65.77;97049.28;2068021;28;20225;-58
2022/03/09 05:11:14;;;;;;;15.82;7.53;;;;;;;-5.27;65.55;97049.31;2066576;28;20206;-58
2022/03/09 05:12:15;;;;;;;16.67;7.05;;;;;;;-5.18;65.62;97058.66;2069862;28;20201;-58
2022/03/09 05:13:20;;;;;;;18.73;7.72;;;;;;;-5.15;65.50;97058.69;2068830;28;20203;-57
2022/03/09 05:14:21;;;;;;;15.13;8.07;;;;;;;-5.21;65.83;97054.41;2067527;28;20297;-57